sensor_id;sensor_type;location;lat;lon;timestamp;pressure;altitude;pressure_sealevel;temperature;humidity
51083;BME280;37131;42.694;23.350;2022-10-18T00:00:51;97053.59;;;6.10;84.73
51083;BME280;37131;42.694;23.350;2022-10-18T00:03:16;97055.53;;;6.08;85.35
51083;BME280;37131;42.694;23.350;2022-10-18T00:05:41;97048.44;;;5.92;85.84
51083;BME280;37131;42.694;23.350;2022-10-18T00:08:07;97049.91;;;6.13;84.95
51083;BME280;37131;42.694;23.350;2022-10-18T00:10:32;97045.97;;;6.09;83.64
51083;BME280;37131;42.694;23.350;2022-10-18T00:12:58;97048.63;;;6.17;82.96
51083;BME280;37131;42.694;23.350;2022-10-18T00:15:23;96970.00;;;5.56;84.84
51083;BME280;37131;42.694;23.350;2022-10-18T00:17:48;97036.56;;;6.08;84.43
51083;BME280;37131;42.694;23.350;2022-10-18T00:20:14;96933.81;;;5.38;85.77
51083;BME280;37131;42.694;23.350;2022-10-18T00:22:40;97028.91;;;5.98;84.77
51083;BME280;37131;42.694;23.350;2022-10-18T00:25:07;97022.06;;;6.15;83.03
51083;BME280;37131;42.694;23.350;2022-10-18T00:27:33;97024.25;;;6.28;82.09
51083;BME280;37131;42.694;23.350;2022-10-18T00:29:59;97017.66;;;6.07;84.28
51083;BME280;37131;42.694;23.350;2022-10-18T00:32:25;97016.19;;;5.87;84.35
51083;BME280;37131;42.694;23.350;2022-10-18T00:34:50;97017.44;;;5.83;84.84
51083;BME280;37131;42.694;23.350;2022-10-18T00:37:16;97012.56;;;5.79;85.54
51083;BME280;37131;42.694;23.350;2022-10-18T00:39:42;97018.19;;;5.75;85.05
51083;BME280;37131;42.694;23.350;2022-10-18T00:42:15;96999.44;;;5.73;84.91
51083;BME280;37131;42.694;23.350;2022-10-18T00:47:08;97004.78;;;5.79;86.29
51083;BME280;37131;42.694;23.350;2022-10-18T00:49:39;97006.13;;;5.84;86.07
51083;BME280;37131;42.694;23.350;2022-10-18T00:52:09;97003.16;;;5.78;85.80
51083;BME280;37131;42.694;23.350;2022-10-18T00:54:38;96999.38;;;5.91;85.91
51083;BME280;37131;42.694;23.350;2022-10-18T00:57:05;97002.34;;;5.78;85.45
51083;BME280;37131;42.694;23.350;2022-10-18T00:59:31;97000.16;;;5.65;84.46
51083;BME280;37131;42.694;23.350;2022-10-18T01:01:57;96997.50;;;5.57;84.13
51083;BME280;37131;42.694;23.350;2022-10-18T01:04:23;96981.56;;;5.43;84.94
51083;BME280;37131;42.694;23.350;2022-10-18T01:15:22;96992.09;;;5.68;85.32
51083;BME280;37131;42.694;23.350;2022-10-18T01:31:33;96988.88;;;5.48;85.18
51083;BME280;37131;42.694;23.350;2022-10-18T01:34:04;96995.13;;;5.45;84.20
51083;BME280;37131;42.694;23.350;2022-10-18T01:36:36;96919.72;;;5.14;84.98
51083;BME280;37131;42.694;23.350;2022-10-18T01:39:06;96980.72;;;5.43;84.17
51083;BME280;37131;42.694;23.350;2022-10-18T01:41:34;96980.72;;;5.43;84.30
51083;BME280;37131;42.694;23.350;2022-10-18T01:44:05;96970.31;;;5.53;83.60
51083;BME280;37131;42.694;23.350;2022-10-18T01:46:33;96971.94;;;5.36;83.26
51083;BME280;37131;42.694;23.350;2022-10-18T01:49:00;96978.66;;;5.65;83.53
51083;BME280;37131;42.694;23.350;2022-10-18T01:51:28;96973.53;;;5.55;84.32
51083;BME280;37131;42.694;23.350;2022-10-18T01:53:54;96926.19;;;5.36;84.10
51083;BME280;37131;42.694;23.350;2022-10-18T01:56:24;96976.81;;;5.57;85.07
51083;BME280;37131;42.694;23.350;2022-10-18T02:01:52;96968.84;;;5.32;86.51
51083;BME280;37131;42.694;23.350;2022-10-18T02:07:06;96911.94;;;4.78;87.62
51083;BME280;37131;42.694;23.350;2022-10-18T02:09:45;96965.00;;;5.36;87.33
51083;BME280;37131;42.694;23.350;2022-10-18T02:12:15;96961.69;;;5.08;87.27
51083;BME280;37131;42.694;23.350;2022-10-18T02:14:42;96964.91;;;5.10;87.94
51083;BME280;37131;42.694;23.350;2022-10-18T02:17:10;96963.66;;;5.14;88.30
51083;BME280;37131;42.694;23.350;2022-10-18T02:19:56;96945.13;;;5.19;86.07
51083;BME280;37131;42.694;23.350;2022-10-18T02:22:26;96969.00;;;5.13;85.74
51083;BME280;37131;42.694;23.350;2022-10-18T02:24:55;96964.13;;;5.09;85.39
51083;BME280;37131;42.694;23.350;2022-10-18T02:27:23;96960.34;;;5.04;86.84
51083;BME280;37131;42.694;23.350;2022-10-18T02:29:49;96959.97;;;5.17;86.09
51083;BME280;37131;42.694;23.350;2022-10-18T02:32:24;96958.50;;;5.14;83.64
51083;BME280;37131;42.694;23.350;2022-10-18T02:35:04;96955.66;;;5.07;83.68
51083;BME280;37131;42.694;23.350;2022-10-18T02:37:36;96955.66;;;5.07;83.80
51083;BME280;37131;42.694;23.350;2022-10-18T02:40:04;96956.41;;;5.18;83.74
51083;BME280;37131;42.694;23.350;2022-10-18T02:42:39;96959.09;;;5.08;84.04
51083;BME280;37131;42.694;23.350;2022-10-18T02:45:08;96964.81;;;5.02;83.91
51083;BME280;37131;42.694;23.350;2022-10-18T02:47:34;96961.06;;;4.96;85.00
51083;BME280;37131;42.694;23.350;2022-10-18T02:49:59;96963.22;;;5.01;85.68
51083;BME280;37131;42.694;23.350;2022-10-18T02:52:24;96964.81;;;5.02;84.30
51083;BME280;37131;42.694;23.350;2022-10-18T02:54:50;96970.38;;;5.07;84.91
51083;BME280;37131;42.694;23.350;2022-10-18T02:57:15;96973.75;;;4.89;86.45
51083;BME280;37131;42.694;23.350;2022-10-18T02:59:40;96970.94;;;4.83;86.82
51083;BME280;37131;42.694;23.350;2022-10-18T03:02:06;96966.34;;;4.77;86.22
51083;BME280;37131;42.694;23.350;2022-10-18T03:04:31;96963.25;;;4.73;87.86
51083;BME280;37131;42.694;23.350;2022-10-18T03:06:56;96962.94;;;4.76;88.09
51083;BME280;37131;42.694;23.350;2022-10-18T03:09:22;96971.81;;;4.73;87.79
51083;BME280;37131;42.694;23.350;2022-10-18T03:11:47;96964.88;;;4.74;87.37
51083;BME280;37131;42.694;23.350;2022-10-18T03:14:13;96970.31;;;4.71;89.04
51083;BME280;37131;42.694;23.350;2022-10-18T03:16:38;96967.22;;;4.67;88.60
51083;BME280;37131;42.694;23.350;2022-10-18T03:19:03;96958.50;;;4.68;88.14
51083;BME280;37131;42.694;23.350;2022-10-18T03:21:29;96955.50;;;4.73;88.17
51083;BME280;37131;42.694;23.350;2022-10-18T03:23:54;96963.00;;;4.66;89.12
51083;BME280;37131;42.694;23.350;2022-10-18T03:26:20;96963.00;;;4.66;88.74
51083;BME280;37131;42.694;23.350;2022-10-18T03:28:46;96959.56;;;4.76;87.17
51083;BME280;37131;42.694;23.350;2022-10-18T03:31:11;96952.75;;;4.47;88.36
51083;BME280;37131;42.694;23.350;2022-10-18T03:33:36;96966.47;;;4.47;88.10
51083;BME280;37131;42.694;23.350;2022-10-18T03:36:02;96960.91;;;4.52;89.45
51083;BME280;37131;42.694;23.350;2022-10-18T03:38:27;96965.22;;;4.61;88.39
51083;BME280;37131;42.694;23.350;2022-10-18T03:40:53;96960.63;;;4.55;88.72
51083;BME280;37131;42.694;23.350;2022-10-18T03:43:18;96955.50;;;4.45;88.25
51083;BME280;37131;42.694;23.350;2022-10-18T03:45:44;96968.81;;;4.50;87.36
51083;BME280;37131;42.694;23.350;2022-10-18T03:48:09;96969.50;;;4.43;86.78
51083;BME280;37131;42.694;23.350;2022-10-18T03:50:34;96980.53;;;4.45;87.39
51083;BME280;37131;42.694;23.350;2022-10-18T03:53:00;96979.31;;;4.39;89.29
51083;BME280;37131;42.694;23.350;2022-10-18T03:55:25;96975.25;;;4.36;88.64
51083;BME280;37131;42.694;23.350;2022-10-18T03:57:51;96971.59;;;4.29;88.49
51083;BME280;37131;42.694;23.350;2022-10-18T04:00:17;96975.59;;;4.51;88.70
51083;BME280;37131;42.694;23.350;2022-10-18T04:02:42;96980.59;;;4.53;87.67
51083;BME280;37131;42.694;23.350;2022-10-18T04:05:08;96977.53;;;4.39;88.36
51083;BME280;37131;42.694;23.350;2022-10-18T04:07:34;96978.63;;;4.37;88.21
51083;BME280;37131;42.694;23.350;2022-10-18T04:09:59;96973.59;;;4.35;87.95
51083;BME280;37131;42.694;23.350;2022-10-18T04:12:25;96976.47;;;4.32;89.79
51083;BME280;37131;42.694;23.350;2022-10-18T04:14:50;96975.00;;;4.30;88.75
51083;BME280;37131;42.694;23.350;2022-10-18T04:17:16;96977.16;;;4.34;88.85
51083;BME280;37131;42.694;23.350;2022-10-18T04:19:41;96986.50;;;4.35;88.24
51083;BME280;37131;42.694;23.350;2022-10-18T04:22:07;96977.81;;;4.36;88.86
51083;BME280;37131;42.694;23.350;2022-10-18T04:24:33;96977.81;;;4.36;89.58
51083;BME280;37131;42.694;23.350;2022-10-18T04:26:58;96979.06;;;4.32;89.52
51083;BME280;37131;42.694;23.350;2022-10-18T04:29:23;96972.66;;;4.36;89.01
51083;BME280;37131;42.694;23.350;2022-10-18T04:31:49;96974.13;;;4.49;88.69
51083;BME280;37131;42.694;23.350;2022-10-18T04:34:14;96981.72;;;4.50;87.76
51083;BME280;37131;42.694;23.350;2022-10-18T04:36:39;96966.00;;;4.34;85.74
51083;BME280;37131;42.694;23.350;2022-10-18T04:39:05;96918.19;;;3.92;87.24
51083;BME280;37131;42.694;23.350;2022-10-18T04:41:30;96971.06;;;4.26;86.87
51083;BME280;37131;42.694;23.350;2022-10-18T04:43:55;96973.69;;;4.16;86.92
51083;BME280;37131;42.694;23.350;2022-10-18T04:46:21;96928.28;;;3.76;88.06
51083;BME280;37131;42.694;23.350;2022-10-18T04:48:46;96971.16;;;3.96;87.51
51083;BME280;37131;42.694;23.350;2022-10-18T04:51:12;96972.31;;;4.12;87.92
51083;BME280;37131;42.694;23.350;2022-10-18T04:53:37;96970.50;;;3.84;88.11
51083;BME280;37131;42.694;23.350;2022-10-18T04:56:02;96968.72;;;3.95;89.39
51083;BME280;37131;42.694;23.350;2022-10-18T04:58:28;96965.19;;;3.96;89.30
51083;BME280;37131;42.694;23.350;2022-10-18T05:00:53;96955.00;;;3.94;88.31
51083;BME280;37131;42.694;23.350;2022-10-18T05:03:19;96944.28;;;3.79;88.79
51083;BME280;37131;42.694;23.350;2022-10-18T05:05:44;96960.31;;;3.93;88.92
51083;BME280;37131;42.694;23.350;2022-10-18T05:08:10;96963.16;;;3.90;88.88
51083;BME280;37131;42.694;23.350;2022-10-18T05:10:36;96899.28;;;3.54;89.90
51083;BME280;37131;42.694;23.350;2022-10-18T05:13:01;96960.56;;;3.99;89.48
51083;BME280;37131;42.694;23.350;2022-10-18T05:15:26;96952.38;;;4.04;89.77
51083;BME280;37131;42.694;23.350;2022-10-18T05:17:52;96957.81;;;4.11;88.28
51083;BME280;37131;42.694;23.350;2022-10-18T05:20:17;96963.63;;;4.13;87.52
51083;BME280;37131;42.694;23.350;2022-10-18T05:22:43;96959.19;;;4.05;86.99
51083;BME280;37131;42.694;23.350;2022-10-18T05:25:08;96956.44;;;4.16;86.79
51083;BME280;37131;42.694;23.350;2022-10-18T05:27:34;96956.25;;;4.28;88.21
51083;BME280;37131;42.694;23.350;2022-10-18T05:29:59;96961.41;;;4.28;87.66
51083;BME280;37131;42.694;23.350;2022-10-18T05:32:25;96961.53;;;4.36;85.99
51083;BME280;37131;42.694;23.350;2022-10-18T05:34:50;96961.09;;;4.41;85.82
51083;BME280;37131;42.694;23.350;2022-10-18T05:37:15;96961.38;;;4.65;84.40
51083;BME280;37131;42.694;23.350;2022-10-18T05:39:41;96964.16;;;4.54;84.47
51083;BME280;37131;42.694;23.350;2022-10-18T05:42:06;96969.91;;;4.48;84.61
51083;BME280;37131;42.694;23.350;2022-10-18T05:44:32;96964.59;;;4.49;83.95
51083;BME280;37131;42.694;23.350;2022-10-18T05:46:58;96964.72;;;4.48;84.10
51083;BME280;37131;42.694;23.350;2022-10-18T05:49:23;96969.50;;;4.43;84.20
51083;BME280;37131;42.694;23.350;2022-10-18T05:51:49;96967.25;;;4.30;83.98
51083;BME280;37131;42.694;23.350;2022-10-18T05:54:14;96898.25;;;3.94;84.78
51083;BME280;37131;42.694;23.350;2022-10-18T05:56:40;96960.53;;;4.37;86.38
51083;BME280;37131;42.694;23.350;2022-10-18T05:59:06;96966.16;;;4.32;86.62
51083;BME280;37131;42.694;23.350;2022-10-18T06:01:40;96966.06;;;4.24;87.20
51083;BME280;37131;42.694;23.350;2022-10-18T06:04:06;96971.72;;;4.37;87.80
51083;BME280;37131;42.694;23.350;2022-10-18T06:06:32;96945.19;;;4.63;86.59
51083;BME280;37131;42.694;23.350;2022-10-18T06:08:58;96970.38;;;4.61;85.59
51083;BME280;37131;42.694;23.350;2022-10-18T06:11:24;96970.75;;;4.66;86.49
51083;BME280;37131;42.694;23.350;2022-10-18T06:13:50;96967.34;;;4.66;86.43
51083;BME280;37131;42.694;23.350;2022-10-18T06:16:18;96949.84;;;4.60;86.88
51083;BME280;37131;42.694;23.350;2022-10-18T06:18:48;96959.41;;;4.77;86.85
51083;BME280;37131;42.694;23.350;2022-10-18T06:21:15;96962.19;;;5.12;87.22
51083;BME280;37131;42.694;23.350;2022-10-18T06:23:40;96954.06;;;5.06;85.98
51083;BME280;37131;42.694;23.350;2022-10-18T06:26:07;96810.09;;;4.17;85.10
51083;BME280;37131;42.694;23.350;2022-10-18T06:28:35;96910.09;;;4.88;84.71
51083;BME280;37131;42.694;23.350;2022-10-18T06:31:01;96955.66;;;5.07;84.93
51083;BME280;37131;42.694;23.350;2022-10-18T06:33:26;96966.75;;;5.36;84.70
51083;BME280;37131;42.694;23.350;2022-10-18T06:36:00;96959.06;;;5.44;83.86
51083;BME280;37131;42.694;23.350;2022-10-18T06:38:27;96957.88;;;5.56;83.75
51083;BME280;37131;42.694;23.350;2022-10-18T06:40:53;96957.34;;;5.71;83.94
51083;BME280;37131;42.694;23.350;2022-10-18T06:43:19;96955.31;;;5.83;81.74
51083;BME280;37131;42.694;23.350;2022-10-18T06:45:44;96956.97;;;5.92;80.29
51083;BME280;37131;42.694;23.350;2022-10-18T06:48:10;96953.78;;;6.24;79.72
51083;BME280;37131;42.694;23.350;2022-10-18T06:50:35;96951.44;;;6.05;77.78
51083;BME280;37131;42.694;23.350;2022-10-18T06:53:01;96951.91;;;6.35;77.31
51083;BME280;37131;42.694;23.350;2022-10-18T06:55:29;96944.03;;;6.10;77.73
51083;BME280;37131;42.694;23.350;2022-10-18T06:57:54;96956.38;;;6.16;76.49
51083;BME280;37131;42.694;23.350;2022-10-18T07:00:20;96952.91;;;6.42;76.68
51083;BME280;37131;42.694;23.350;2022-10-18T07:02:45;96939.44;;;6.81;75.15
51083;BME280;37131;42.694;23.350;2022-10-18T07:05:11;96935.72;;;6.83;75.04
51083;BME280;37131;42.694;23.350;2022-10-18T07:07:37;96944.22;;;7.10;75.08
51083;BME280;37131;42.694;23.350;2022-10-18T07:10:03;96935.94;;;7.23;73.17
51083;BME280;37131;42.694;23.350;2022-10-18T07:12:30;96892.00;;;6.97;73.77
51083;BME280;37131;42.694;23.350;2022-10-18T07:14:55;96945.34;;;7.57;70.97
51083;BME280;37131;42.694;23.350;2022-10-18T07:17:20;96945.34;;;7.73;69.20
51083;BME280;37131;42.694;23.350;2022-10-18T07:19:46;96950.06;;;7.78;68.71
51083;BME280;37131;42.694;23.350;2022-10-18T07:22:11;96943.91;;;7.63;69.45
51083;BME280;37131;42.694;23.350;2022-10-18T07:24:37;96931.69;;;7.88;68.71
51083;BME280;37131;42.694;23.350;2022-10-18T07:27:02;96942.38;;;8.10;67.51
51083;BME280;37131;42.694;23.350;2022-10-18T07:29:27;96933.72;;;8.25;68.37
51083;BME280;37131;42.694;23.350;2022-10-18T07:31:53;96939.91;;;8.16;67.52
51083;BME280;37131;42.694;23.350;2022-10-18T07:34:18;96934.25;;;8.13;68.12
51083;BME280;37131;42.694;23.350;2022-10-18T07:36:44;96923.84;;;8.21;68.54
51083;BME280;37131;42.694;23.350;2022-10-18T07:39:09;96906.50;;;7.97;69.35
51083;BME280;37131;42.694;23.350;2022-10-18T07:41:35;96920.13;;;8.15;67.41
51083;BME280;37131;42.694;23.350;2022-10-18T07:44:00;96868.28;;;7.74;67.71
51083;BME280;37131;42.694;23.350;2022-10-18T07:46:26;96922.25;;;8.03;68.98
51083;BME280;37131;42.694;23.350;2022-10-18T07:48:52;96918.22;;;8.49;67.82
51083;BME280;37131;42.694;23.350;2022-10-18T07:51:18;96847.47;;;8.30;66.69
51083;BME280;37131;42.694;23.350;2022-10-18T07:53:44;96910.03;;;8.91;66.78
51083;BME280;37131;42.694;23.350;2022-10-18T07:56:14;96907.84;;;9.03;65.33
51083;BME280;37131;42.694;23.350;2022-10-18T07:58:44;96905.19;;;9.35;65.15
51083;BME280;37131;42.694;23.350;2022-10-18T08:01:11;96899.91;;;9.43;63.46
51083;BME280;37131;42.694;23.350;2022-10-18T08:03:37;96897.50;;;9.56;63.20
51083;BME280;37131;42.694;23.350;2022-10-18T08:06:04;96899.88;;;9.05;66.49
51083;BME280;37131;42.694;23.350;2022-10-18T08:08:31;96857.94;;;8.76;66.67
51083;BME280;37131;42.694;23.350;2022-10-18T08:11:07;96886.44;;;9.16;66.88
51083;BME280;37131;42.694;23.350;2022-10-18T08:13:33;96893.06;;;9.42;66.07
51083;BME280;37131;42.694;23.350;2022-10-18T08:16:07;96883.63;;;9.26;64.49
51083;BME280;37131;42.694;23.350;2022-10-18T08:18:33;96887.25;;;9.40;63.82
51083;BME280;37131;42.694;23.350;2022-10-18T08:21:03;96880.91;;;9.57;64.50
51083;BME280;37131;42.694;23.350;2022-10-18T08:23:29;96870.50;;;9.87;63.98
51083;BME280;37131;42.694;23.350;2022-10-18T08:25:55;96876.19;;;9.91;63.78
51083;BME280;37131;42.694;23.350;2022-10-18T08:28:21;96866.81;;;9.96;63.59
51083;BME280;37131;42.694;23.350;2022-10-18T08:30:46;96858.81;;;9.98;63.21
51083;BME280;37131;42.694;23.350;2022-10-18T08:33:12;96858.94;;;10.05;64.27
51083;BME280;37131;42.694;23.350;2022-10-18T08:35:37;96844.13;;;10.57;61.12
51083;BME280;37131;42.694;23.350;2022-10-18T08:38:02;96839.94;;;10.77;59.85
51083;BME280;37131;42.694;23.350;2022-10-18T08:40:28;96833.09;;;10.98;59.05
51083;BME280;37131;42.694;23.350;2022-10-18T08:43:06;96739.88;;;9.90;60.57
51083;BME280;37131;42.694;23.350;2022-10-18T08:45:37;96828.22;;;10.51;61.58
51083;BME280;37131;42.694;23.350;2022-10-18T08:48:07;96820.19;;;10.90;61.91
51083;BME280;37131;42.694;23.350;2022-10-18T08:50:41;96817.00;;;10.94;60.79
51083;BME280;37131;42.694;23.350;2022-10-18T08:53:19;96798.72;;;11.44;59.90
51083;BME280;37131;42.694;23.350;2022-10-18T08:56:13;96711.66;;;10.74;59.27
51083;BME280;37131;42.694;23.350;2022-10-18T08:58:42;96795.81;;;11.61;57.09
51083;BME280;37131;42.694;23.350;2022-10-18T09:09:47;96796.88;;;12.08;57.55
51083;BME280;37131;42.694;23.350;2022-10-18T09:17:30;96788.72;;;12.38;55.34
51083;BME280;37131;42.694;23.350;2022-10-18T09:22:51;96785.78;;;13.08;54.67
51083;BME280;37131;42.694;23.350;2022-10-18T09:25:23;96778.31;;;13.31;53.33
51083;BME280;37131;42.694;23.350;2022-10-18T09:28:09;96781.38;;;13.22;54.23
51083;BME280;37131;42.694;23.350;2022-10-18T09:30:53;96776.50;;;13.52;54.29
51083;BME280;37131;42.694;23.350;2022-10-18T09:33:34;96730.56;;;13.23;53.46
51083;BME280;37131;42.694;23.350;2022-10-18T09:36:28;96763.78;;;13.69;53.36
51083;BME280;37131;42.694;23.350;2022-10-18T09:39:02;96752.19;;;13.97;51.86
51083;BME280;37131;42.694;23.350;2022-10-18T09:41:33;96760.25;;;13.95;52.01
51083;BME280;37131;42.694;23.350;2022-10-18T09:46:58;96738.66;;;14.38;50.48
51083;BME280;37131;42.694;23.350;2022-10-18T09:49:31;96740.72;;;14.68;51.19
51083;BME280;37131;42.694;23.350;2022-10-18T09:52:04;96742.69;;;14.98;50.70
51083;BME280;37131;42.694;23.350;2022-10-18T09:54:36;96729.31;;;15.06;48.96
51083;BME280;37131;42.694;23.350;2022-10-18T09:57:40;96733.38;;;14.77;49.22
51083;BME280;37131;42.694;23.350;2022-10-18T10:00:14;96726.13;;;15.23;49.45
51083;BME280;37131;42.694;23.350;2022-10-18T10:02:41;96711.09;;;15.67;48.36
51083;BME280;37131;42.694;23.350;2022-10-18T10:05:12;96703.72;;;15.39;47.03
51083;BME280;37131;42.694;23.350;2022-10-18T10:07:43;96699.66;;;15.80;46.97
51083;BME280;37131;42.694;23.350;2022-10-18T10:10:22;96687.09;;;16.12;45.57
51083;BME280;37131;42.694;23.350;2022-10-18T10:13:03;96687.00;;;16.19;43.32
51083;BME280;37131;42.694;23.350;2022-10-18T10:15:29;96680.66;;;16.39;42.75
51083;BME280;37131;42.694;23.350;2022-10-18T10:20:24;96669.16;;;17.11;41.05
51083;BME280;37131;42.694;23.350;2022-10-18T10:23:07;96653.56;;;16.74;38.84
51083;BME280;37131;42.694;23.350;2022-10-18T10:25:35;96660.44;;;17.22;39.61
51083;BME280;37131;42.694;23.350;2022-10-18T10:28:05;96653.44;;;17.40;37.63
51083;BME280;37131;42.694;23.350;2022-10-18T10:30:36;96648.06;;;17.23;37.66
51083;BME280;37131;42.694;23.350;2022-10-18T10:33:02;96571.63;;;17.23;37.97
51083;BME280;37131;42.694;23.350;2022-10-18T10:35:34;96638.13;;;17.53;37.15
51083;BME280;37131;42.694;23.350;2022-10-18T10:37:59;96591.84;;;17.46;37.23
51083;BME280;37131;42.694;23.350;2022-10-18T10:40:27;96628.97;;;18.14;35.72
51083;BME280;37131;42.694;23.350;2022-10-18T10:43:06;96615.66;;;18.20;36.69
51083;BME280;37131;42.694;23.350;2022-10-18T10:45:58;96613.78;;;18.21;34.35
51083;BME280;37131;42.694;23.350;2022-10-18T10:48:26;96596.03;;;18.33;35.38
51083;BME280;37131;42.694;23.350;2022-10-18T10:51:11;96596.50;;;18.64;34.90
51083;BME280;37131;42.694;23.350;2022-10-18T10:53:47;96592.19;;;18.75;33.41
51083;BME280;37131;42.694;23.350;2022-10-18T10:56:27;96598.50;;;18.23;32.41
51083;BME280;37131;42.694;23.350;2022-10-18T10:58:55;96591.00;;;18.32;32.61
51083;BME280;37131;42.694;23.350;2022-10-18T11:01:30;96589.66;;;18.29;33.32
51083;BME280;37131;42.694;23.350;2022-10-18T11:04:02;96584.66;;;18.67;31.65
51083;BME280;37131;42.694;23.350;2022-10-18T11:06:42;96585.78;;;18.54;33.29
51083;BME280;37131;42.694;23.350;2022-10-18T11:09:18;96581.38;;;18.76;32.75
51083;BME280;37131;42.694;23.350;2022-10-18T11:11:58;96569.34;;;18.86;32.39
51083;BME280;37131;42.694;23.350;2022-10-18T11:14:30;96567.81;;;18.73;31.42
51083;BME280;37131;42.694;23.350;2022-10-18T11:19:57;96563.22;;;19.02;33.52
51083;BME280;37131;42.694;23.350;2022-10-18T11:22:27;96541.41;;;19.12;32.38
51083;BME280;37131;42.694;23.350;2022-10-18T11:24:54;96542.59;;;19.26;29.58
51083;BME280;37131;42.694;23.350;2022-10-18T11:27:37;96538.84;;;19.44;29.86
51083;BME280;37131;42.694;23.350;2022-10-18T11:36:02;96531.13;;;19.16;26.92
51083;BME280;37131;42.694;23.350;2022-10-18T11:38:39;96526.91;;;19.69;27.39
51083;BME280;37131;42.694;23.350;2022-10-18T11:41:24;96512.94;;;19.46;26.55
51083;BME280;37131;42.694;23.350;2022-10-18T11:44:03;96513.50;;;19.76;26.37
51083;BME280;37131;42.694;23.350;2022-10-18T11:46:46;96513.88;;;19.35;27.96
51083;BME280;37131;42.694;23.350;2022-10-18T11:49:26;96483.25;;;19.67;25.91
51083;BME280;37131;42.694;23.350;2022-10-18T11:54:35;96496.88;;;19.80;25.85
51083;BME280;37131;42.694;23.350;2022-10-18T11:57:39;96491.53;;;19.48;24.79
51083;BME280;37131;42.694;23.350;2022-10-18T12:05:38;96478.00;;;19.72;24.46
51083;BME280;37131;42.694;23.350;2022-10-18T12:08:08;96473.31;;;19.79;25.28
51083;BME280;37131;42.694;23.350;2022-10-18T12:10:36;96464.19;;;19.97;23.11
51083;BME280;37131;42.694;23.350;2022-10-18T12:13:06;96451.53;;;20.04;25.20
51083;BME280;37131;42.694;23.350;2022-10-18T12:15:38;96440.53;;;20.23;23.57
51083;BME280;37131;42.694;23.350;2022-10-18T12:18:16;96443.00;;;20.40;24.01
51083;BME280;37131;42.694;23.350;2022-10-18T12:20:52;96432.59;;;20.76;23.58
51083;BME280;37131;42.694;23.350;2022-10-18T12:23:29;96433.41;;;20.81;22.93
51083;BME280;37131;42.694;23.350;2022-10-18T12:26:02;96428.72;;;21.04;21.67
51083;BME280;37131;42.694;23.350;2022-10-18T12:28:57;96422.91;;;21.28;20.02
51083;BME280;37131;42.694;23.350;2022-10-18T12:31:41;96416.06;;;21.68;19.81
51083;BME280;37131;42.694;23.350;2022-10-18T12:34:32;96416.84;;;21.73;18.61
51083;BME280;37131;42.694;23.350;2022-10-18T12:37:16;96425.84;;;21.36;21.82
51083;BME280;37131;42.694;23.350;2022-10-18T12:42:22;96412.31;;;21.43;21.12
51083;BME280;37131;42.694;23.350;2022-10-18T12:44:49;96403.53;;;21.17;19.45
51083;BME280;37131;42.694;23.350;2022-10-18T12:47:24;96406.47;;;21.20;19.43
51083;BME280;37131;42.694;23.350;2022-10-18T12:53:18;96398.69;;;20.78;21.10
51083;BME280;37131;42.694;23.350;2022-10-18T12:55:49;96397.09;;;20.24;20.45
51083;BME280;37131;42.694;23.350;2022-10-18T12:58:25;96405.66;;;20.36;21.66
51083;BME280;37131;42.694;23.350;2022-10-18T13:00:54;96400.41;;;20.46;20.46
51083;BME280;37131;42.694;23.350;2022-10-18T13:08:36;96392.88;;;20.28;20.40
51083;BME280;37131;42.694;23.350;2022-10-18T13:13:44;96391.44;;;20.05;20.22
51083;BME280;37131;42.694;23.350;2022-10-18T13:41:06;96360.91;;;19.54;21.88
51083;BME280;37131;42.694;23.350;2022-10-18T13:46:20;96351.00;;;19.72;20.90
51083;BME280;37131;42.694;23.350;2022-10-18T13:48:54;96354.94;;;19.69;22.42
51083;BME280;37131;42.694;23.350;2022-10-18T13:54:27;96342.72;;;19.63;21.79
51083;BME280;37131;42.694;23.350;2022-10-18T13:57:11;96342.91;;;19.51;22.33
51083;BME280;37131;42.694;23.350;2022-10-18T14:00:15;96348.47;;;19.50;22.47
51083;BME280;37131;42.694;23.350;2022-10-18T14:02:56;96340.00;;;19.48;21.76
51083;BME280;37131;42.694;23.350;2022-10-18T14:08:18;96338.06;;;19.38;21.97
51083;BME280;37131;42.694;23.350;2022-10-18T14:13:59;96327.03;;;19.51;22.62
51083;BME280;37131;42.694;23.350;2022-10-18T14:16:49;96323.63;;;19.51;22.29
51083;BME280;37131;42.694;23.350;2022-10-18T14:24:29;96328.78;;;19.35;21.89
51083;BME280;37131;42.694;23.350;2022-10-18T14:27:11;96323.50;;;19.35;22.72
51083;BME280;37131;42.694;23.350;2022-10-18T14:29:37;96324.31;;;19.36;22.51
51083;BME280;37131;42.694;23.350;2022-10-18T14:32:08;96328.19;;;19.28;23.23
51083;BME280;37131;42.694;23.350;2022-10-18T14:34:33;96322.13;;;19.27;23.12
51083;BME280;37131;42.694;23.350;2022-10-18T14:36:59;96328.13;;;19.18;23.03
51083;BME280;37131;42.694;23.350;2022-10-18T14:39:25;96325.94;;;19.09;24.20
51083;BME280;37131;42.694;23.350;2022-10-18T14:41:55;96315.06;;;19.06;23.56
51083;BME280;37131;42.694;23.350;2022-10-18T14:44:26;96314.25;;;19.00;23.92
51083;BME280;37131;42.694;23.350;2022-10-18T14:46:57;96317.06;;;18.93;23.53
51083;BME280;37131;42.694;23.350;2022-10-18T14:49:23;96305.91;;;18.86;24.32
51083;BME280;37131;42.694;23.350;2022-10-18T14:51:54;96314.06;;;18.85;23.06
51083;BME280;37131;42.694;23.350;2022-10-18T14:54:32;96310.88;;;18.83;24.11
51083;BME280;37131;42.694;23.350;2022-10-18T14:57:01;96305.53;;;18.77;23.60
51083;BME280;37131;42.694;23.350;2022-10-18T14:59:30;96307.28;;;18.67;24.29
51083;BME280;37131;42.694;23.350;2022-10-18T15:02:03;96303.78;;;18.61;24.88
51083;BME280;37131;42.694;23.350;2022-10-18T15:04:33;96306.59;;;18.49;24.88
51083;BME280;37131;42.694;23.350;2022-10-18T15:07:00;96295.41;;;18.42;24.58
51083;BME280;37131;42.694;23.350;2022-10-18T15:09:28;96301.44;;;18.37;25.00
51083;BME280;37131;42.694;23.350;2022-10-18T15:11:53;96293.41;;;18.27;25.14
51083;BME280;37131;42.694;23.350;2022-10-18T15:14:23;96298.53;;;18.12;26.93